Time;durP1;ratioP1;P1;durP2;ratioP2;P2;SDS_P1;SDS_P2;PMS_P1;PMS_P2;Temp;Humidity;BMP_temperature;BMP_pressure;BME280_temperature;BME280_humidity;BME280_pressure;Samples;Min_cycle;Max_cycle;Signal;HPM_P1;HPM_P2
2021/06/22 00:00:18;;;;;;;4.22;1.70;;;;;;;;;;5069986;28;20558;-70
2021/06/22 00:02:46;;;;;;;6.88;2.55;;;;;;;;;;5069748;28;20070;-70
2021/06/22 00:05:13;;;;;;;8.23;2.13;;;;;;;;;;5069702;28;20029;-70
2021/06/22 00:07:40;;;;;;;7.25;2.58;;;;;;;;;;5071362;28;20435;-71
2021/06/22 00:10:08;;;;;;;4.80;2.35;;;;;;;;;;5066378;28;20504;-70
2021/06/22 00:12:35;;;;;;;7.05;1.98;;;;;;;;;;5052597;28;20508;-70
2021/06/22 00:15:03;;;;;;;7.38;2.55;;;;;;;;;;5068737;28;20032;-70
2021/06/22 00:17:30;;;;;;;5.75;2.10;;;;;;;;;;5071630;28;20028;-70
2021/06/22 00:19:57;;;;;;;6.05;2.10;;;;;;;;;;5052441;28;20504;-70
2021/06/22 00:22:25;;;;;;;4.03;1.55;;;;;;;;;;5069417;28;20064;-70
2021/06/22 00:24:52;;;;;;;8.52;2.42;;;;;;;;;;5052480;28;20123;-70
2021/06/22 00:27:19;;;;;;;6.95;2.38;;;;;;;;;;5055985;28;20043;-70
2021/06/22 00:29:50;;;;;;;5.07;2.28;;;;;;;;;;5068228;28;20035;-71
2021/06/22 00:32:17;;;;;;;6.90;2.28;;;;;;;;;;5045972;28;20048;-70
2021/06/22 00:34:47;;;;;;;10.48;2.20;;;;;;;;;;5048855;28;20457;-71
2021/06/22 00:37:15;;;;;;;4.13;2.70;;;;;;;;;;5051855;28;20056;-71
2021/06/22 00:39:43;;;;;;;8.32;3.08;;;;;;;;;;5054433;28;20084;-71
2021/06/22 00:42:11;;;;;;;7.80;2.40;;;;;;;;;;5055125;28;20021;-71
2021/06/22 00:44:47;;;;;;;3.67;2.35;;;;;;;;;;5051257;28;20124;-71
2021/06/22 00:47:17;;;;;;;4.85;2.00;;;;;;;;;;5055151;28;20512;-71
2021/06/22 00:49:45;;;;;;;6.38;2.28;;;;;;;;;;5054136;28;20615;-71
2021/06/22 00:52:12;;;;;;;5.97;2.53;;;;;;;;;;5055086;28;20029;-71
2021/06/22 00:54:39;;;;;;;6.25;1.92;;;;;;;;;;5053229;28;20457;-70
2021/06/22 00:57:10;;;;;;;5.75;2.22;;;;;;;;;;5052715;28;20033;-71
2021/06/22 00:59:38;;;;;;;6.18;2.08;;;;;;;;;;5052041;28;20037;-71
2021/06/22 01:02:08;;;;;;;5.55;1.88;;;;;;;;;;5048806;28;20063;-70
2021/06/22 01:04:35;;;;;;;5.47;1.65;;;;;;;;;;5032128;28;20051;-69
2021/06/22 01:07:03;;;;;;;8.80;1.73;;;;;;;;;;5036061;28;20040;-69
2021/06/22 01:09:30;;;;;;;3.20;1.33;;;;;;;;;;5053589;28;20029;-70
2021/06/22 01:11:58;;;;;;;5.70;1.75;;;;;;;;;;5036829;28;20485;-70
2021/06/22 01:14:26;;;;;;;6.65;2.20;;;;;;;;;;5034998;28;20064;-69
2021/06/22 01:16:53;;;;;;;3.15;1.00;;;;;;;;;;5054608;28;20445;-69
2021/06/22 01:19:21;;;;;;;3.60;0.88;;;;;;;;;;5054660;28;20490;-70
2021/06/22 01:21:48;;;;;;;2.90;0.50;;;;;;;;;;5036116;28;20041;-70
2021/06/22 01:24:17;;;;;;;3.83;1.23;;;;;;;;;;5054612;28;20090;-70
2021/06/22 01:26:51;;;;;;;6.88;1.02;;;;;;;;;;5034866;28;20033;-72
2021/06/22 01:29:19;;;;;;;3.40;0.40;;;;;;;;;;5036284;28;20040;-68
2021/06/22 01:31:46;;;;;;;3.75;1.08;;;;;;;;;;5055411;28;20094;-69
2021/06/22 01:34:14;;;;;;;5.43;0.85;;;;;;;;;;5074414;28;20451;-69
2021/06/22 01:36:42;;;;;;;2.92;0.60;;;;;;;;;;5072268;28;20094;-69
2021/06/22 01:39:14;;;;;;;3.42;1.20;;;;;;;;;;5072975;28;20028;-69
2021/06/22 01:41:41;;;;;;;8.27;1.77;;;;;;;;;;5072984;28;20032;-70
2021/06/22 01:44:08;;;;;;;4.28;1.23;;;;;;;;;;5056063;28;20036;-70
2021/06/22 01:46:35;;;;;;;3.95;1.38;;;;;;;;;;5072637;28;20493;-70
2021/06/22 01:49:02;;;;;;;3.10;1.00;;;;;;;;;;5073314;28;20041;-70
2021/06/22 01:51:30;;;;;;;3.55;1.20;;;;;;;;;;5072026;28;20508;-70
2021/06/22 01:53:58;;;;;;;8.07;1.42;;;;;;;;;;5074086;28;20500;-70
2021/06/22 01:56:26;;;;;;;4.38;0.75;;;;;;;;;;5072850;28;20369;-70
2021/06/22 01:58:54;;;;;;;4.75;1.10;;;;;;;;;;5069488;28;20040;-70
2021/06/22 02:01:21;;;;;;;5.15;2.13;;;;;;;;;;5072827;28;20045;-69
2021/06/22 02:03:48;;;;;;;7.45;1.23;;;;;;;;;;5074082;28;20036;-69
2021/06/22 02:06:15;;;;;;;6.70;1.00;;;;;;;;;;5071716;28;20036;-70
2021/06/22 02:08:42;;;;;;;3.67;0.93;;;;;;;;;;5055778;28;20452;-69
2021/06/22 02:11:10;;;;;;;4.63;1.23;;;;;;;;;;5072780;28;20083;-70
2021/06/22 02:13:37;;;;;;;4.88;0.98;;;;;;;;;;5073573;28;20045;-69
2021/06/22 02:16:04;;;;;;;4.65;1.00;;;;;;;;;;5070797;28;20032;-69
2021/06/22 02:18:31;;;;;;;3.28;0.80;;;;;;;;;;5055768;28;20067;-70
2021/06/22 02:21:00;;;;;;;2.35;0.70;;;;;;;;;;5072462;28;20029;-70
2021/06/22 02:23:27;;;;;;;2.08;0.70;;;;;;;;;;5073759;28;20028;-69
2021/06/22 02:25:54;;;;;;;2.80;0.98;;;;;;;;;;5072499;28;20056;-69
2021/06/22 02:28:23;;;;;;;6.78;1.42;;;;;;;;;;5072021;28;20032;-70
2021/06/22 02:30:51;;;;;;;3.55;0.63;;;;;;;;;;5072161;28;20519;-70
2021/06/22 02:33:19;;;;;;;1.63;0.70;;;;;;;;;;5072860;28;20462;-70
2021/06/22 02:35:46;;;;;;;5.03;1.00;;;;;;;;;;5071819;28;20510;-69
2021/06/22 02:38:13;;;;;;;2.78;1.08;;;;;;;;;;5055236;28;20036;-70
2021/06/22 02:40:40;;;;;;;3.10;0.90;;;;;;;;;;5050505;28;20033;-69
2021/06/22 02:43:08;;;;;;;4.88;0.68;;;;;;;;;;5035024;28;20131;-69
2021/06/22 02:45:35;;;;;;;5.53;1.15;;;;;;;;;;5068305;28;20022;-69
2021/06/22 02:48:03;;;;;;;3.17;0.80;;;;;;;;;;5054996;28;20040;-70
2021/06/22 02:50:30;;;;;;;5.40;0.73;;;;;;;;;;5071814;28;20497;-70
2021/06/22 02:52:57;;;;;;;2.75;0.70;;;;;;;;;;5068480;28;20044;-69
2021/06/22 02:55:25;;;;;;;3.92;0.98;;;;;;;;;;5071318;28;20052;-69
2021/06/22 02:57:53;;;;;;;1.30;0.47;;;;;;;;;;5072547;28;20035;-69
2021/06/22 03:00:21;;;;;;;3.45;1.25;;;;;;;;;;5071198;28;20060;-69
2021/06/22 03:02:49;;;;;;;3.17;0.50;;;;;;;;;;5072606;28;20036;-69
2021/06/22 03:05:17;;;;;;;1.13;0.50;;;;;;;;;;5069849;28;20027;-70
2021/06/22 03:07:44;;;;;;;1.52;0.40;;;;;;;;;;5069931;28;20036;-69
2021/06/22 03:10:13;;;;;;;1.70;0.40;;;;;;;;;;5070962;28;20032;-70
2021/06/22 03:12:40;;;;;;;2.70;0.45;;;;;;;;;;5054303;28;20505;-70
2021/06/22 03:15:08;;;;;;;1.88;0.73;;;;;;;;;;5069786;28;20086;-69
2021/06/22 03:17:35;;;;;;;2.80;0.70;;;;;;;;;;5072430;28;20052;-70
2021/06/22 03:20:04;;;;;;;1.55;0.40;;;;;;;;;;5071323;28;20044;-69
2021/06/22 03:22:31;;;;;;;1.63;0.20;;;;;;;;;;5072285;28;20028;-69
2021/06/22 03:24:58;;;;;;;5.65;0.80;;;;;;;;;;5069345;28;20033;-70
2021/06/22 03:27:25;;;;;;;3.70;0.68;;;;;;;;;;5072334;28;20024;-69
2021/06/22 03:29:52;;;;;;;1.80;0.45;;;;;;;;;;5065969;28;20031;-69
2021/06/22 03:32:20;;;;;;;2.65;0.50;;;;;;;;;;5050205;28;20482;-69
2021/06/22 03:34:47;;;;;;;1.42;0.50;;;;;;;;;;5050264;28;20033;-69
2021/06/22 03:37:14;;;;;;;1.98;0.40;;;;;;;;;;5050942;28;20053;-69
2021/06/22 03:39:42;;;;;;;1.73;0.45;;;;;;;;;;5048660;28;20844;-69
2021/06/22 03:42:12;;;;;;;1.23;0.30;;;;;;;;;;5051728;28;20099;-69
2021/06/22 03:44:39;;;;;;;3.55;0.45;;;;;;;;;;5041239;28;20044;-70
2021/06/22 03:47:07;;;;;;;5.05;0.95;;;;;;;;;;5049802;28;20558;-70
2021/06/22 03:49:34;;;;;;;3.80;0.70;;;;;;;;;;5050381;28;20473;-70
2021/06/22 03:52:01;;;;;;;5.53;1.00;;;;;;;;;;5051817;28;20036;-69
2021/06/22 03:54:28;;;;;;;2.97;0.70;;;;;;;;;;5050895;28;20029;-70
2021/06/22 03:56:55;;;;;;;3.38;0.45;;;;;;;;;;5051779;28;20033;-69
2021/06/22 03:59:22;;;;;;;3.20;0.60;;;;;;;;;;5051238;28;20033;-70
2021/06/22 04:01:49;;;;;;;6.10;0.95;;;;;;;;;;5051596;28;20194;-70
2021/06/22 04:04:16;;;;;;;4.30;0.70;;;;;;;;;;5052077;28;20087;-70
2021/06/22 04:06:44;;;;;;;3.03;0.50;;;;;;;;;;5041791;28;20046;-70
2021/06/22 04:09:11;;;;;;;2.10;0.50;;;;;;;;;;5030415;28;20038;-70
2021/06/22 04:11:38;;;;;;;3.55;0.50;;;;;;;;;;5048809;28;20066;-70
2021/06/22 04:14:05;;;;;;;4.60;0.50;;;;;;;;;;5050551;28;20095;-70
2021/06/22 04:16:32;;;;;;;2.10;0.40;;;;;;;;;;5050425;28;20565;-70
2021/06/22 04:18:59;;;;;;;2.95;0.25;;;;;;;;;;5050178;28;20167;-70
2021/06/22 04:21:26;;;;;;;2.30;0.20;;;;;;;;;;5045518;28;20033;-70
2021/06/22 04:23:53;;;;;;;2.38;0.77;;;;;;;;;;5051446;28;20033;-70
2021/06/22 04:26:20;;;;;;;4.68;0.80;;;;;;;;;;5050157;28;20095;-70
2021/06/22 04:28:47;;;;;;;2.92;0.60;;;;;;;;;;5051510;28;20029;-70
2021/06/22 04:31:15;;;;;;;3.00;0.57;;;;;;;;;;5044603;28;20517;-70
2021/06/22 04:33:42;;;;;;;2.58;0.40;;;;;;;;;;5067520;28;20424;-69
2021/06/22 04:36:09;;;;;;;2.10;0.40;;;;;;;;;;5070203;28;20040;-69
2021/06/22 04:38:36;;;;;;;3.30;0.60;;;;;;;;;;5071366;28;20024;-69
2021/06/22 04:41:03;;;;;;;1.83;0.50;;;;;;;;;;5052265;28;20043;-71
2021/06/22 04:43:30;;;;;;;3.33;0.50;;;;;;;;;;5068780;28;20044;-71
2021/06/22 04:45:57;;;;;;;2.60;0.45;;;;;;;;;;5051931;28;20028;-70
2021/06/22 04:48:25;;;;;;;0.93;0.25;;;;;;;;;;5071620;28;20389;-70
2021/06/22 04:50:57;;;;;;;2.28;0.30;;;;;;;;;;5070064;28;20025;-70
2021/06/22 04:53:25;;;;;;;1.67;0.40;;;;;;;;;;5071375;28;20076;-70
2021/06/22 04:55:52;;;;;;;1.48;0.80;;;;;;;;;;5070116;28;20484;-70
2021/06/22 04:58:19;;;;;;;3.80;0.90;;;;;;;;;;5071312;28;20081;-71
2021/06/22 05:00:46;;;;;;;3.40;0.70;;;;;;;;;;5068802;28;20092;-70
2021/06/22 05:03:13;;;;;;;4.97;1.02;;;;;;;;;;5070734;28;20112;-71
2021/06/22 05:05:41;;;;;;;2.30;0.63;;;;;;;;;;5069653;28;20481;-70
2021/06/22 05:08:08;;;;;;;3.50;0.30;;;;;;;;;;5052710;28;20037;-70
2021/06/22 05:10:35;;;;;;;4.30;0.38;;;;;;;;;;5069721;28;20373;-71
2021/06/22 05:13:02;;;;;;;2.22;0.28;;;;;;;;;;5070968;28;20047;-70
2021/06/22 05:15:29;;;;;;;2.78;0.50;;;;;;;;;;5061440;28;20056;-70
2021/06/22 05:17:56;;;;;;;3.47;0.20;;;;;;;;;;5051174;28;20033;-70
2021/06/22 05:20:23;;;;;;;1.25;0.30;;;;;;;;;;5056961;28;20032;-70
2021/06/22 05:22:50;;;;;;;1.67;0.28;;;;;;;;;;5053851;28;20109;-71
2021/06/22 05:25:18;;;;;;;1.55;0.40;;;;;;;;;;5055115;28;20040;-70
2021/06/22 05:27:45;;;;;;;2.00;0.32;;;;;;;;;;5071837;28;20032;-71
2021/06/22 05:30:12;;;;;;;2.25;0.20;;;;;;;;;;5071551;28;20029;-70
2021/06/22 05:32:39;;;;;;;1.90;0.30;;;;;;;;;;5064161;28;20041;-70
2021/06/22 05:35:06;;;;;;;1.10;0.20;;;;;;;;;;5052058;28;20057;-70
2021/06/22 05:37:34;;;;;;;5.60;1.02;;;;;;;;;;5051930;28;20492;-70
2021/06/22 05:40:01;;;;;;;4.15;0.38;;;;;;;;;;5050264;28;20040;-70
2021/06/22 05:42:28;;;;;;;4.35;0.73;;;;;;;;;;5051131;28;20052;-71
2021/06/22 05:44:55;;;;;;;5.82;1.35;;;;;;;;;;5051903;28;20493;-70
2021/06/22 05:47:23;;;;;;;3.90;0.28;;;;;;;;;;5052166;28;20063;-70
2021/06/22 05:49:50;;;;;;;5.18;0.43;;;;;;;;;;5050643;28;20025;-70
2021/06/22 05:52:17;;;;;;;4.75;1.17;;;;;;;;;;5050546;28;20037;-70
2021/06/22 05:54:44;;;;;;;4.25;0.50;;;;;;;;;;5044634;28;20095;-70
2021/06/22 05:57:11;;;;;;;4.40;1.02;;;;;;;;;;5051483;28;20069;-70
2021/06/22 05:59:38;;;;;;;4.40;0.93;;;;;;;;;;5050510;28;20119;-70
2021/06/22 06:02:06;;;;;;;5.57;0.80;;;;;;;;;;5052584;28;20513;-69
2021/06/22 06:04:33;;;;;;;4.38;0.55;;;;;;;;;;5049906;28;20028;-71
2021/06/22 06:07:00;;;;;;;3.08;0.57;;;;;;;;;;5052972;28;20069;-71
2021/06/22 06:09:27;;;;;;;7.68;0.75;;;;;;;;;;5050087;28;20025;-70
2021/06/22 06:11:55;;;;;;;3.40;0.50;;;;;;;;;;5029629;28;20037;-70
2021/06/22 06:14:22;;;;;;;2.38;0.70;;;;;;;;;;5032950;28;20375;-71
2021/06/22 06:16:49;;;;;;;3.95;1.23;;;;;;;;;;5047690;28;20037;-71
2021/06/22 06:19:16;;;;;;;4.35;0.65;;;;;;;;;;5044367;28;20036;-71
2021/06/22 06:21:45;;;;;;;4.60;0.52;;;;;;;;;;5030254;28;20505;-72
2021/06/22 06:24:12;;;;;;;2.97;1.02;;;;;;;;;;5056042;28;20083;-71
2021/06/22 06:27:00;;;;;;;6.40;0.93;;;;;;;;;;5033610;28;20036;-71
2021/06/22 06:32:13;;;;;;;5.38;1.30;;;;;;;;;;5055111;28;20443;-70
2021/06/22 06:34:40;;;;;;;2.15;0.60;;;;;;;;;;5052802;28;20043;-71
2021/06/22 06:37:07;;;;;;;6.50;1.13;;;;;;;;;;5058090;28;20102;-70
2021/06/22 06:39:34;;;;;;;2.85;0.73;;;;;;;;;;5054638;28;20485;-70
2021/06/22 06:42:01;;;;;;;1.90;0.68;;;;;;;;;;5046510;28;20045;-70
2021/06/22 06:44:28;;;;;;;2.92;0.95;;;;;;;;;;5052337;28;20036;-71
2021/06/22 06:46:55;;;;;;;8.00;1.33;;;;;;;;;;5051975;28;20493;-70
2021/06/22 06:49:22;;;;;;;2.53;0.63;;;;;;;;;;5050469;28;20045;-70
2021/06/22 06:51:49;;;;;;;4.82;1.00;;;;;;;;;;5051793;28;20044;-71
2021/06/22 06:54:16;;;;;;;2.63;0.90;;;;;;;;;;5033248;28;20041;-71
2021/06/22 06:56:44;;;;;;;2.70;0.80;;;;;;;;;;5046681;28;20041;-70
2021/06/22 06:59:11;;;;;;;3.38;0.60;;;;;;;;;;5050908;28;20400;-70
2021/06/22 07:01:38;;;;;;;1.55;0.50;;;;;;;;;;5050684;28;20038;-70
2021/06/22 07:04:05;;;;;;;3.55;0.77;;;;;;;;;;5031046;28;20041;-69
2021/06/22 07:06:32;;;;;;;2.40;0.93;;;;;;;;;;5050076;28;20041;-71
2021/06/22 07:08:59;;;;;;;5.80;0.73;;;;;;;;;;5047029;28;20033;-70
2021/06/22 07:11:26;;;;;;;2.88;1.00;;;;;;;;;;5030761;28;20044;-71
2021/06/22 07:13:54;;;;;;;3.35;0.75;;;;;;;;;;5033678;28;20128;-70
2021/06/22 07:16:24;;;;;;;2.65;1.48;;;;;;;;;;5048962;28;20088;-70
2021/06/22 07:18:51;;;;;;;2.88;0.70;;;;;;;;;;5030873;28;20033;-71
2021/06/22 07:21:19;;;;;;;3.63;0.70;;;;;;;;;;5048016;28;20490;-70
2021/06/22 07:23:46;;;;;;;3.15;0.90;;;;;;;;;;5049408;28;20604;-70
2021/06/22 07:26:14;;;;;;;3.47;1.27;;;;;;;;;;5050292;28;20517;-70
2021/06/22 07:28:41;;;;;;;6.47;1.30;;;;;;;;;;5050669;28;20082;-70
2021/06/22 07:31:08;;;;;;;3.20;1.00;;;;;;;;;;5049314;28;20091;-70
2021/06/22 07:33:35;;;;;;;6.28;1.30;;;;;;;;;;5045221;28;20053;-70
2021/06/22 07:36:03;;;;;;;4.50;1.33;;;;;;;;;;5049488;28;20040;-69
2021/06/22 07:38:30;;;;;;;7.07;1.85;;;;;;;;;;5036315;28;20037;-69
2021/06/22 07:40:57;;;;;;;6.40;1.58;;;;;;;;;;5048392;28;20036;-68
2021/06/22 07:43:24;;;;;;;6.05;1.60;;;;;;;;;;5048661;28;20098;-69
2021/06/22 07:45:51;;;;;;;4.85;1.70;;;;;;;;;;5044936;28;20405;-70
2021/06/22 07:48:19;;;;;;;6.07;2.25;;;;;;;;;;5049086;28;20509;-69
2021/06/22 07:50:46;;;;;;;5.22;1.83;;;;;;;;;;5048438;28;20029;-69
2021/06/22 07:53:13;;;;;;;5.03;1.48;;;;;;;;;;5050746;28;20454;-70
2021/06/22 07:55:40;;;;;;;3.75;1.83;;;;;;;;;;5049860;28;20041;-69
2021/06/22 07:58:08;;;;;;;3.85;1.25;;;;;;;;;;5049342;28;20037;-70
2021/06/22 08:00:41;;;;;;;7.13;1.73;;;;;;;;;;5049811;28;20120;-70
2021/06/22 08:03:09;;;;;;;6.00;1.55;;;;;;;;;;5048607;28;20171;-70
2021/06/22 08:05:37;;;;;;;7.15;2.25;;;;;;;;;;5044577;28;20418;-69
2021/06/22 08:08:04;;;;;;;7.32;2.15;;;;;;;;;;5048088;28;20504;-69
2021/06/22 08:10:31;;;;;;;8.07;2.92;;;;;;;;;;5039856;28;20029;-69
2021/06/22 08:12:59;;;;;;;7.78;2.28;;;;;;;;;;5045108;28;20042;-70
2021/06/22 08:15:27;;;;;;;7.03;1.90;;;;;;;;;;5043393;28;20044;-70
2021/06/22 08:17:54;;;;;;;7.28;2.60;;;;;;;;;;5049539;28;20110;-70
2021/06/22 08:20:22;;;;;;;11.75;2.30;;;;;;;;;;5049635;28;20033;-70
2021/06/22 08:22:53;;;;;;;9.52;2.13;;;;;;;;;;5049480;28;20132;-69
2021/06/22 08:25:21;;;;;;;7.20;2.03;;;;;;;;;;5049913;28;20115;-70
2021/06/22 08:27:49;;;;;;;6.43;2.13;;;;;;;;;;5050058;28;20033;-71
2021/06/22 08:30:16;;;;;;;9.48;3.10;;;;;;;;;;5048225;28;20489;-70
2021/06/22 08:32:43;;;;;;;12.18;3.08;;;;;;;;;;5054613;28;20136;-69
2021/06/22 08:35:11;;;;;;;6.88;2.58;;;;;;;;;;5070517;28;20048;-69
2021/06/22 08:37:38;;;;;;;4.65;2.90;;;;;;;;;;5070981;28;20055;-69
2021/06/22 08:40:05;;;;;;;14.60;3.80;;;;;;;;;;5070601;28;20128;-70
2021/06/22 08:42:35;;;;;;;16.50;4.82;;;;;;;;;;5057590;28;20040;-69
2021/06/22 08:45:02;;;;;;;12.38;5.53;;;;;;;;;;5071100;28;20028;-70
2021/06/22 08:47:29;;;;;;;11.30;4.65;;;;;;;;;;5070025;28;20052;-70
2021/06/22 08:49:57;;;;;;;11.20;4.70;;;;;;;;;;5069630;28;20039;-70
2021/06/22 08:52:25;;;;;;;9.00;4.72;;;;;;;;;;5065455;28;20025;-70
2021/06/22 08:54:53;;;;;;;10.88;5.40;;;;;;;;;;5070558;28;20032;-70
2021/06/22 08:57:21;;;;;;;10.25;6.05;;;;;;;;;;5071601;28;20032;-70
2021/06/22 08:59:48;;;;;;;12.07;4.88;;;;;;;;;;5074033;28;20388;-70
2021/06/22 09:02:16;;;;;;;11.80;5.70;;;;;;;;;;5051719;28;20428;-70
2021/06/22 09:04:44;;;;;;;12.02;5.30;;;;;;;;;;5072924;28;20036;-69
2021/06/22 09:07:12;;;;;;;10.40;5.15;;;;;;;;;;5074283;28;20029;-69
2021/06/22 09:09:40;;;;;;;13.75;5.20;;;;;;;;;;5074562;28;20108;-69
2021/06/22 09:12:08;;;;;;;10.00;6.18;;;;;;;;;;5074468;28;20033;-69
2021/06/22 09:14:40;;;;;;;12.40;4.32;;;;;;;;;;5074534;28;20047;-69
2021/06/22 09:17:07;;;;;;;9.20;4.63;;;;;;;;;;5056175;28;20041;-69
2021/06/22 09:19:35;;;;;;;8.95;4.45;;;;;;;;;;5074708;28;20033;-69
2021/06/22 09:22:18;;;;;;;8.90;3.80;;;;;;;;;;5073740;28;20051;-70
2021/06/22 09:25:20;;;;;;;10.20;3.75;;;;;;;;;;5074304;28;20055;-70
2021/06/22 09:27:49;;;;;;;6.93;4.10;;;;;;;;;;4988702;28;20034;-69
2021/06/22 09:30:16;;;;;;;7.93;3.85;;;;;;;;;;5059519;28;20133;-70
2021/06/22 09:32:43;;;;;;;6.72;3.50;;;;;;;;;;5072459;28;20496;-70
2021/06/22 09:35:21;;;;;;;14.95;5.00;;;;;;;;;;5055122;28;20504;-70
2021/06/22 09:37:54;;;;;;;13.27;6.93;;;;;;;;;;5055914;28;20040;-71
2021/06/22 09:40:25;;;;;;;13.70;7.05;;;;;;;;;;5072729;28;20028;-71
2021/06/22 09:42:56;;;;;;;15.55;6.22;;;;;;;;;;5070939;28;20051;-71
2021/06/22 09:45:23;;;;;;;13.18;6.25;;;;;;;;;;5071670;28;20037;-70
2021/06/22 09:47:51;;;;;;;14.23;6.88;;;;;;;;;;5073632;28;20040;-70
2021/06/22 09:50:50;;;;;;;18.30;6.85;;;;;;;;;;5073833;28;20112;-70
2021/06/22 09:53:28;;;;;;;13.73;6.13;;;;;;;;;;5030267;28;20121;-71
2021/06/22 09:55:55;;;;;;;12.77;5.13;;;;;;;;;;5072326;28;20101;-70
2021/06/22 09:58:36;;;;;;;14.05;5.53;;;;;;;;;;5068842;28;20400;-69
2021/06/22 10:01:04;;;;;;;11.07;4.97;;;;;;;;;;5073363;28;20060;-70
2021/06/22 10:03:38;;;;;;;10.55;5.38;;;;;;;;;;5072971;28;20033;-69
2021/06/22 10:06:09;;;;;;;11.90;5.82;;;;;;;;;;5073223;28;20036;-70
2021/06/22 10:08:57;;;;;;;8.85;5.28;;;;;;;;;;5072682;28;20474;-70
2021/06/22 10:11:30;;;;;;;9.02;5.85;;;;;;;;;;5054894;28;20044;-70
2021/06/22 10:13:57;;;;;;;11.85;6.55;;;;;;;;;;5054139;28;20036;-69
2021/06/22 10:16:25;;;;;;;12.77;6.70;;;;;;;;;;5073177;28;20036;-68
2021/06/22 10:18:53;;;;;;;15.30;7.53;;;;;;;;;;5073379;28;20171;-70
2021/06/22 10:21:20;;;;;;;15.10;8.18;;;;;;;;;;5072969;28;20170;-70
2021/06/22 10:23:48;;;;;;;12.30;7.65;;;;;;;;;;5073083;28;20142;-69
2021/06/22 10:26:15;;;;;;;11.07;7.15;;;;;;;;;;5073742;28;20025;-70
2021/06/22 10:28:45;;;;;;;11.10;7.10;;;;;;;;;;5054962;28;20539;-69
2021/06/22 10:31:13;;;;;;;13.52;5.03;;;;;;;;;;5072414;28;20396;-70
2021/06/22 10:33:40;;;;;;;14.63;4.80;;;;;;;;;;5053212;28;20061;-69
2021/06/22 10:36:07;;;;;;;7.18;3.85;;;;;;;;;;5033553;28;20379;-69
2021/06/22 10:38:43;;;;;;;9.15;3.58;;;;;;;;;;5039497;28;20063;-71
2021/06/22 10:41:10;;;;;;;6.57;3.58;;;;;;;;;;5044182;28;20079;-71
2021/06/22 10:43:39;;;;;;;8.80;3.65;;;;;;;;;;5033320;28;20041;-69
2021/06/22 10:46:07;;;;;;;10.80;3.80;;;;;;;;;;5047887;28;20116;-70
2021/06/22 10:48:44;;;;;;;13.13;3.20;;;;;;;;;;5049818;28;20029;-70
2021/06/22 10:51:31;;;;;;;10.60;2.28;;;;;;;;;;5046027;28;20017;-71
2021/06/22 10:54:01;;;;;;;8.10;2.85;;;;;;;;;;5050333;28;20509;-70
2021/06/22 10:56:29;;;;;;;9.18;2.50;;;;;;;;;;5051154;28;20552;-71
2021/06/22 10:59:15;;;;;;;12.50;3.13;;;;;;;;;;5042726;28;20055;-71
2021/06/22 11:01:51;;;;;;;10.52;3.90;;;;;;;;;;5047129;28;20029;-70
2021/06/22 11:04:18;;;;;;;12.13;4.00;;;;;;;;;;5055249;28;20040;-70
2021/06/22 11:07:08;;;;;;;14.10;3.42;;;;;;;;;;5034484;28;20375;-71
2021/06/22 11:09:35;;;;;;;8.75;3.50;;;;;;;;;;5051965;28;20036;-71
2021/06/22 11:12:21;;;;;;;9.98;4.57;;;;;;;;;;5041204;28;20045;-70
2021/06/22 11:15:07;;;;;;;10.18;5.43;;;;;;;;;;5043357;28;20037;-70
2021/06/22 11:17:43;;;;;;;7.60;4.05;;;;;;;;;;5038355;28;20036;-70
2021/06/22 11:20:15;;;;;;;12.52;5.32;;;;;;;;;;5039967;28;20049;-69
2021/06/22 11:23:02;;;;;;;11.00;5.18;;;;;;;;;;5042658;28;20057;-71
2021/06/22 11:25:48;;;;;;;13.10;6.72;;;;;;;;;;5039778;28;20171;-70
2021/06/22 11:28:15;;;;;;;11.50;5.95;;;;;;;;;;5043831;28;20493;-71
2021/06/22 11:30:48;;;;;;;14.60;6.70;;;;;;;;;;5025977;28;20524;-70
2021/06/22 11:33:34;;;;;;;15.38;6.32;;;;;;;;;;5029379;28;20397;-69
2021/06/22 11:36:16;;;;;;;14.80;5.35;;;;;;;;;;5025338;28;20047;-71
2021/06/22 11:38:44;;;;;;;12.98;6.60;;;;;;;;;;5031114;28;20033;-71
2021/06/22 11:41:15;;;;;;;12.48;6.57;;;;;;;;;;5047043;28;20432;-70
2021/06/22 11:44:00;;;;;;;12.98;6.63;;;;;;;;;;5031656;28;20141;-70
2021/06/22 11:46:31;;;;;;;13.52;6.82;;;;;;;;;;5055449;28;20401;-70
2021/06/22 11:48:59;;;;;;;15.65;5.78;;;;;;;;;;5013749;28;20107;-71
2021/06/22 11:51:44;;;;;;;12.68;5.75;;;;;;;;;;5046784;28;20037;-71
2021/06/22 11:54:11;;;;;;;12.63;6.15;;;;;;;;;;5023538;28;20417;-70
2021/06/22 11:56:38;;;;;;;8.88;5.03;;;;;;;;;;5047395;28;20040;-70
2021/06/22 11:59:05;;;;;;;7.72;4.43;;;;;;;;;;5047946;28;20040;-70
2021/06/22 12:01:33;;;;;;;9.60;3.83;;;;;;;;;;5030719;28;20468;-70
2021/06/22 12:04:00;;;;;;;8.50;3.58;;;;;;;;;;5045567;28;20123;-70
2021/06/22 12:06:27;;;;;;;14.80;5.10;;;;;;;;;;5030229;28;20472;-70
2021/06/22 12:08:54;;;;;;;12.65;3.58;;;;;;;;;;5046385;28;20100;-71
2021/06/22 12:11:28;;;;;;;7.88;3.80;;;;;;;;;;5049710;28;20029;-70
2021/06/22 12:13:56;;;;;;;8.75;3.70;;;;;;;;;;5030683;28;20113;-71
2021/06/22 12:16:24;;;;;;;8.93;4.03;;;;;;;;;;5031448;28;20501;-71
2021/06/22 12:18:55;;;;;;;8.30;3.75;;;;;;;;;;5047284;28;20128;-72
2021/06/22 12:21:23;;;;;;;15.32;4.20;;;;;;;;;;5048278;28;20029;-70
2021/06/22 12:23:50;;;;;;;7.55;4.25;;;;;;;;;;5030544;28;20366;-72
2021/06/22 12:26:18;;;;;;;11.52;4.60;;;;;;;;;;5030129;28;20144;-71
2021/06/22 12:28:45;;;;;;;6.30;3.65;;;;;;;;;;5044141;28;20505;-71
2021/06/22 12:31:13;;;;;;;11.70;5.07;;;;;;;;;;5030021;28;20127;-71
2021/06/22 12:33:45;;;;;;;9.85;4.78;;;;;;;;;;5048520;28;20041;-71
2021/06/22 12:36:17;;;;;;;11.48;3.90;;;;;;;;;;5046502;28;20029;-70
2021/06/22 12:38:45;;;;;;;10.13;4.65;;;;;;;;;;5050077;28;20033;-70
2021/06/22 12:41:12;;;;;;;14.10;4.13;;;;;;;;;;5053220;28;20033;-70
2021/06/22 12:43:39;;;;;;;6.90;4.03;;;;;;;;;;5047372;28;20052;-70
2021/06/22 12:46:07;;;;;;;6.78;4.70;;;;;;;;;;5048327;28;20033;-69
2021/06/22 12:48:34;;;;;;;10.95;7.10;;;;;;;;;;5037394;28;20512;-70
2021/06/22 12:51:01;;;;;;;11.88;7.45;;;;;;;;;;5056641;28;20029;-70
2021/06/22 12:53:29;;;;;;;14.35;7.00;;;;;;;;;;5048685;28;20037;-70
2021/06/22 12:56:13;;;;;;;12.02;6.68;;;;;;;;;;5053674;28;20044;-70
2021/06/22 12:58:49;;;;;;;8.95;5.68;;;;;;;;;;5054744;28;20113;-70
2021/06/22 13:01:29;;;;;;;11.70;5.50;;;;;;;;;;5048438;28;20033;-70
2021/06/22 13:03:56;;;;;;;13.10;5.93;;;;;;;;;;5047119;28;20536;-70
2021/06/22 13:06:30;;;;;;;7.70;5.15;;;;;;;;;;5053402;28;20060;-70
2021/06/22 13:08:58;;;;;;;9.40;5.05;;;;;;;;;;5039781;28;20075;-70
2021/06/22 13:11:29;;;;;;;8.50;4.68;;;;;;;;;;5045491;28;20384;-70
2021/06/22 13:14:16;;;;;;;8.65;4.78;;;;;;;;;;5043751;28;20041;-70
2021/06/22 13:16:44;;;;;;;9.63;5.70;;;;;;;;;;5053893;28;20068;-71
2021/06/22 13:19:13;;;;;;;8.50;5.07;;;;;;;;;;5044604;28;20033;-71
2021/06/22 13:21:43;;;;;;;10.52;5.28;;;;;;;;;;5052335;28;20063;-70
2021/06/22 13:24:10;;;;;;;11.57;5.78;;;;;;;;;;5041247;28;20112;-71
2021/06/22 13:26:42;;;;;;;17.15;6.50;;;;;;;;;;5051699;28;20033;-71
2021/06/22 13:29:09;;;;;;;10.15;5.65;;;;;;;;;;5046279;28;20029;-70
2021/06/22 13:31:37;;;;;;;9.73;5.50;;;;;;;;;;5051202;28;20474;-71
2021/06/22 13:34:09;;;;;;;11.45;6.93;;;;;;;;;;5056385;28;20041;-71
2021/06/22 13:36:41;;;;;;;11.43;6.18;;;;;;;;;;5054291;28;20053;-70
2021/06/22 13:39:12;;;;;;;10.07;6.32;;;;;;;;;;5063875;28;20474;-70
2021/06/22 13:41:47;;;;;;;16.63;6.63;;;;;;;;;;5054502;28;20079;-70
2021/06/22 13:44:13;;;;;;;;;;;;;;;;;;5049476;28;20048;-71
2021/06/22 13:46:40;;;;;;;8.23;5.20;;;;;;;;;;5054297;28;19908;-71
2021/06/22 13:49:08;;;;;;;16.38;6.55;;;;;;;;;;5060378;28;20025;-70
2021/06/22 13:51:36;;;;;;;10.85;6.53;;;;;;;;;;5070552;28;20056;-70
2021/06/22 13:54:06;;;;;;;8.90;5.35;;;;;;;;;;5051406;28;20431;-70
2021/06/22 13:56:34;;;;;;;9.70;5.65;;;;;;;;;;5049702;28;20025;-70
2021/06/22 13:59:01;;;;;;;7.80;5.90;;;;;;;;;;5055305;28;20444;-69
2021/06/22 14:01:28;;;;;;;9.32;5.95;;;;;;;;;;5057843;28;20025;-71
2021/06/22 14:03:57;;;;;;;11.57;6.32;;;;;;;;;;5067004;28;20067;-70
2021/06/22 14:06:24;;;;;;;9.32;6.30;;;;;;;;;;5069379;28;20353;-71
2021/06/22 14:08:51;;;;;;;11.57;6.65;;;;;;;;;;5062887;28;20040;-70
2021/06/22 14:11:19;;;;;;;11.13;7.13;;;;;;;;;;5054682;28;20032;-71
2021/06/22 14:13:48;;;;;;;12.38;7.18;;;;;;;;;;5065129;28;20072;-70
2021/06/22 14:16:15;;;;;;;11.43;6.65;;;;;;;;;;5051640;28;20478;-70
2021/06/22 14:18:43;;;;;;;12.65;7.00;;;;;;;;;;5058014;28;20474;-70
2021/06/22 14:21:10;;;;;;;13.02;7.47;;;;;;;;;;5057375;28;20036;-70
2021/06/22 14:23:37;;;;;;;12.05;8.10;;;;;;;;;;5058637;28;20047;-70
2021/06/22 14:26:04;;;;;;;17.02;9.00;;;;;;;;;;5065565;28;20497;-70
2021/06/22 14:28:32;;;;;;;16.95;7.90;;;;;;;;;;5056799;28;20037;-70
2021/06/22 14:30:59;;;;;;;16.67;9.10;;;;;;;;;;5050315;28;20039;-70
2021/06/22 14:33:30;;;;;;;12.27;8.85;;;;;;;;;;5050539;28;20045;-70
2021/06/22 14:35:57;;;;;;;20.52;10.20;;;;;;;;;;5052103;28;20033;-70
2021/06/22 14:38:25;;;;;;;15.82;9.68;;;;;;;;;;5053290;28;20094;-70
2021/06/22 14:40:53;;;;;;;20.13;10.75;;;;;;;;;;5050693;28;20036;-70
2021/06/22 14:43:20;;;;;;;17.70;11.88;;;;;;;;;;5059591;28;20517;-70
2021/06/22 14:45:48;;;;;;;17.75;12.15;;;;;;;;;;5061125;28;20065;-70
2021/06/22 14:48:15;;;;;;;15.85;12.10;;;;;;;;;;5069888;28;20490;-70
2021/06/22 14:50:44;;;;;;;18.55;11.85;;;;;;;;;;5064463;28;20064;-69